sensor_id;sensor_type;location;lat;lon;timestamp;P1;durP1;ratioP1;P2;durP2;ratioP2
21018;SDS011;10667;51.056;3.732;2023-03-29T00:01:56;11.05;;;5.88;;
21018;SDS011;10667;51.056;3.732;2023-03-29T00:04:21;7.43;;;4.72;;
21018;SDS011;10667;51.056;3.732;2023-03-29T00:06:54;9.10;;;4.80;;
21018;SDS011;10667;51.056;3.732;2023-03-29T00:09:20;7.97;;;5.18;;
21018;SDS011;10667;51.056;3.732;2023-03-29T00:11:46;8.18;;;4.88;;
21018;SDS011;10667;51.056;3.732;2023-03-29T00:14:12;8.65;;;4.72;;
21018;SDS011;10667;51.056;3.732;2023-03-29T00:16:38;7.57;;;4.70;;
21018;SDS011;10667;51.056;3.732;2023-03-29T00:19:04;7.28;;;5.30;;
21018;SDS011;10667;51.056;3.732;2023-03-29T00:21:30;8.65;;;4.95;;
21018;SDS011;10667;51.056;3.732;2023-03-29T00:23:56;10.18;;;5.18;;
21018;SDS011;10667;51.056;3.732;2023-03-29T00:26:21;6.30;;;4.93;;
21018;SDS011;10667;51.056;3.732;2023-03-29T00:28:47;7.57;;;5.20;;
21018;SDS011;10667;51.056;3.732;2023-03-29T00:31:14;9.05;;;4.88;;
21018;SDS011;10667;51.056;3.732;2023-03-29T00:33:41;8.05;;;5.07;;
21018;SDS011;10667;51.056;3.732;2023-03-29T00:36:07;6.20;;;4.88;;
21018;SDS011;10667;51.056;3.732;2023-03-29T00:38:34;7.85;;;4.43;;
21018;SDS011;10667;51.056;3.732;2023-03-29T00:41:00;9.50;;;4.97;;
21018;SDS011;10667;51.056;3.732;2023-03-29T00:43:27;9.05;;;5.20;;
21018;SDS011;10667;51.056;3.732;2023-03-29T00:45:52;11.27;;;5.25;;
21018;SDS011;10667;51.056;3.732;2023-03-29T00:48:19;10.13;;;5.32;;
21018;SDS011;10667;51.056;3.732;2023-03-29T00:59:06;6.95;;;4.95;;
21018;SDS011;10667;51.056;3.732;2023-03-29T01:01:50;10.68;;;4.78;;
21018;SDS011;10667;51.056;3.732;2023-03-29T01:07:47;9.15;;;4.30;;
21018;SDS011;10667;51.056;3.732;2023-03-29T01:13:10;6.60;;;4.80;;
21018;SDS011;10667;51.056;3.732;2023-03-29T01:15:39;11.57;;;5.22;;
21018;SDS011;10667;51.056;3.732;2023-03-29T01:18:08;8.00;;;4.65;;
21018;SDS011;10667;51.056;3.732;2023-03-29T01:28:50;9.40;;;4.55;;
21018;SDS011;10667;51.056;3.732;2023-03-29T01:31:22;6.65;;;4.35;;
21018;SDS011;10667;51.056;3.732;2023-03-29T01:33:53;9.63;;;4.43;;
21018;SDS011;10667;51.056;3.732;2023-03-29T01:36:30;9.38;;;5.22;;
21018;SDS011;10667;51.056;3.732;2023-03-29T01:39:02;5.18;;;4.13;;
21018;SDS011;10667;51.056;3.732;2023-03-29T01:41:40;8.77;;;4.43;;
21018;SDS011;10667;51.056;3.732;2023-03-29T01:44:34;9.65;;;5.15;;
21018;SDS011;10667;51.056;3.732;2023-03-29T01:47:25;7.25;;;4.35;;
21018;SDS011;10667;51.056;3.732;2023-03-29T01:52:49;7.97;;;4.45;;
21018;SDS011;10667;51.056;3.732;2023-03-29T01:55:33;6.25;;;4.35;;
21018;SDS011;10667;51.056;3.732;2023-03-29T01:58:03;5.85;;;4.72;;
21018;SDS011;10667;51.056;3.732;2023-03-29T02:00:32;9.30;;;4.95;;
21018;SDS011;10667;51.056;3.732;2023-03-29T02:03:01;5.07;;;4.32;;
21018;SDS011;10667;51.056;3.732;2023-03-29T02:05:31;7.85;;;5.03;;
21018;SDS011;10667;51.056;3.732;2023-03-29T02:08:00;6.70;;;4.78;;
21018;SDS011;10667;51.056;3.732;2023-03-29T02:10:26;9.90;;;4.57;;
21018;SDS011;10667;51.056;3.732;2023-03-29T02:12:53;7.60;;;4.40;;
21018;SDS011;10667;51.056;3.732;2023-03-29T02:15:19;7.00;;;4.60;;
21018;SDS011;10667;51.056;3.732;2023-03-29T02:17:46;8.52;;;4.88;;
21018;SDS011;10667;51.056;3.732;2023-03-29T02:20:20;7.97;;;4.47;;
21018;SDS011;10667;51.056;3.732;2023-03-29T02:25:39;5.80;;;4.53;;
21018;SDS011;10667;51.056;3.732;2023-03-29T02:28:07;6.00;;;4.53;;
21018;SDS011;10667;51.056;3.732;2023-03-29T02:33:20;7.63;;;4.88;;
21018;SDS011;10667;51.056;3.732;2023-03-29T02:36:15;7.50;;;4.35;;
21018;SDS011;10667;51.056;3.732;2023-03-29T02:38:44;5.05;;;4.25;;
21018;SDS011;10667;51.056;3.732;2023-03-29T02:41:11;7.93;;;4.70;;
21018;SDS011;10667;51.056;3.732;2023-03-29T02:43:38;8.63;;;4.82;;
21018;SDS011;10667;51.056;3.732;2023-03-29T02:46:05;7.80;;;5.03;;
21018;SDS011;10667;51.056;3.732;2023-03-29T02:48:31;8.60;;;4.78;;
21018;SDS011;10667;51.056;3.732;2023-03-29T02:51:00;8.85;;;5.35;;
21018;SDS011;10667;51.056;3.732;2023-03-29T02:53:31;9.13;;;4.45;;
21018;SDS011;10667;51.056;3.732;2023-03-29T02:56:05;10.30;;;4.93;;
21018;SDS011;10667;51.056;3.732;2023-03-29T02:58:32;6.93;;;4.82;;
21018;SDS011;10667;51.056;3.732;2023-03-29T03:01:00;9.07;;;4.60;;
21018;SDS011;10667;51.056;3.732;2023-03-29T03:03:29;5.53;;;4.60;;
21018;SDS011;10667;51.056;3.732;2023-03-29T03:05:55;8.88;;;4.80;;
21018;SDS011;10667;51.056;3.732;2023-03-29T03:08:21;6.30;;;4.95;;
21018;SDS011;10667;51.056;3.732;2023-03-29T03:10:47;7.90;;;4.75;;
21018;SDS011;10667;51.056;3.732;2023-03-29T03:13:13;7.65;;;5.78;;
21018;SDS011;10667;51.056;3.732;2023-03-29T03:15:39;9.60;;;6.10;;
21018;SDS011;10667;51.056;3.732;2023-03-29T03:18:07;8.50;;;5.22;;
21018;SDS011;10667;51.056;3.732;2023-03-29T03:20:33;7.95;;;5.00;;
21018;SDS011;10667;51.056;3.732;2023-03-29T03:23:00;8.98;;;4.97;;
21018;SDS011;10667;51.056;3.732;2023-03-29T03:25:27;11.90;;;5.07;;
21018;SDS011;10667;51.056;3.732;2023-03-29T03:27:54;10.88;;;5.57;;
21018;SDS011;10667;51.056;3.732;2023-03-29T03:30:19;6.95;;;5.22;;
21018;SDS011;10667;51.056;3.732;2023-03-29T03:32:45;9.45;;;5.05;;
21018;SDS011;10667;51.056;3.732;2023-03-29T03:35:12;6.47;;;4.78;;
21018;SDS011;10667;51.056;3.732;2023-03-29T03:37:38;8.98;;;5.28;;
21018;SDS011;10667;51.056;3.732;2023-03-29T03:40:05;9.50;;;5.20;;
21018;SDS011;10667;51.056;3.732;2023-03-29T03:42:36;11.73;;;5.57;;
21018;SDS011;10667;51.056;3.732;2023-03-29T03:45:03;7.43;;;5.30;;
21018;SDS011;10667;51.056;3.732;2023-03-29T03:47:29;8.85;;;5.25;;
21018;SDS011;10667;51.056;3.732;2023-03-29T03:49:55;8.85;;;4.82;;
21018;SDS011;10667;51.056;3.732;2023-03-29T03:52:21;9.00;;;5.30;;
21018;SDS011;10667;51.056;3.732;2023-03-29T03:54:47;10.27;;;5.45;;
21018;SDS011;10667;51.056;3.732;2023-03-29T03:57:14;10.13;;;5.82;;
21018;SDS011;10667;51.056;3.732;2023-03-29T03:59:40;10.63;;;5.10;;
21018;SDS011;10667;51.056;3.732;2023-03-29T04:02:06;9.77;;;4.95;;
21018;SDS011;10667;51.056;3.732;2023-03-29T04:04:32;7.75;;;5.22;;
21018;SDS011;10667;51.056;3.732;2023-03-29T04:06:58;8.52;;;5.50;;
21018;SDS011;10667;51.056;3.732;2023-03-29T04:09:27;8.55;;;5.07;;
21018;SDS011;10667;51.056;3.732;2023-03-29T04:11:54;8.32;;;5.07;;
21018;SDS011;10667;51.056;3.732;2023-03-29T04:14:20;11.25;;;6.10;;
21018;SDS011;10667;51.056;3.732;2023-03-29T04:16:45;13.73;;;5.55;;
21018;SDS011;10667;51.056;3.732;2023-03-29T04:19:11;9.68;;;5.75;;
21018;SDS011;10667;51.056;3.732;2023-03-29T04:21:37;8.25;;;5.45;;
21018;SDS011;10667;51.056;3.732;2023-03-29T04:24:03;6.68;;;5.47;;
21018;SDS011;10667;51.056;3.732;2023-03-29T04:26:29;9.10;;;5.35;;
21018;SDS011;10667;51.056;3.732;2023-03-29T04:28:55;11.38;;;5.45;;
21018;SDS011;10667;51.056;3.732;2023-03-29T04:31:21;11.88;;;6.28;;
21018;SDS011;10667;51.056;3.732;2023-03-29T04:33:46;9.60;;;5.53;;
21018;SDS011;10667;51.056;3.732;2023-03-29T04:36:12;13.48;;;6.28;;
21018;SDS011;10667;51.056;3.732;2023-03-29T04:38:39;8.77;;;5.85;;
21018;SDS011;10667;51.056;3.732;2023-03-29T04:41:06;11.30;;;5.88;;
21018;SDS011;10667;51.056;3.732;2023-03-29T04:43:37;11.07;;;5.55;;
21018;SDS011;10667;51.056;3.732;2023-03-29T04:46:03;11.13;;;5.32;;
21018;SDS011;10667;51.056;3.732;2023-03-29T04:48:31;10.48;;;6.07;;
21018;SDS011;10667;51.056;3.732;2023-03-29T04:50:57;9.23;;;5.55;;
21018;SDS011;10667;51.056;3.732;2023-03-29T04:53:23;9.93;;;5.90;;
21018;SDS011;10667;51.056;3.732;2023-03-29T04:55:49;9.07;;;5.88;;
21018;SDS011;10667;51.056;3.732;2023-03-29T04:58:15;7.95;;;5.80;;
21018;SDS011;10667;51.056;3.732;2023-03-29T05:00:41;10.13;;;5.68;;
21018;SDS011;10667;51.056;3.732;2023-03-29T05:03:07;15.85;;;5.82;;
21018;SDS011;10667;51.056;3.732;2023-03-29T05:05:35;11.02;;;5.32;;
21018;SDS011;10667;51.056;3.732;2023-03-29T05:08:01;8.43;;;5.43;;
21018;SDS011;10667;51.056;3.732;2023-03-29T05:10:27;12.35;;;5.78;;
21018;SDS011;10667;51.056;3.732;2023-03-29T05:12:53;9.88;;;6.18;;
21018;SDS011;10667;51.056;3.732;2023-03-29T05:15:20;10.32;;;5.80;;
21018;SDS011;10667;51.056;3.732;2023-03-29T05:17:46;9.07;;;5.50;;
21018;SDS011;10667;51.056;3.732;2023-03-29T05:20:13;12.90;;;6.03;;
21018;SDS011;10667;51.056;3.732;2023-03-29T05:22:39;8.65;;;5.82;;
21018;SDS011;10667;51.056;3.732;2023-03-29T05:25:05;16.38;;;5.72;;
21018;SDS011;10667;51.056;3.732;2023-03-29T05:27:32;12.13;;;6.55;;
21018;SDS011;10667;51.056;3.732;2023-03-29T05:29:59;12.02;;;5.65;;
21018;SDS011;10667;51.056;3.732;2023-03-29T05:32:26;8.85;;;6.22;;
21018;SDS011;10667;51.056;3.732;2023-03-29T05:34:52;16.45;;;7.07;;
21018;SDS011;10667;51.056;3.732;2023-03-29T05:37:17;9.57;;;5.85;;
21018;SDS011;10667;51.056;3.732;2023-03-29T05:39:43;11.32;;;6.75;;
21018;SDS011;10667;51.056;3.732;2023-03-29T05:42:09;11.60;;;6.22;;
21018;SDS011;10667;51.056;3.732;2023-03-29T05:44:37;9.75;;;5.85;;
21018;SDS011;10667;51.056;3.732;2023-03-29T05:47:04;11.15;;;6.22;;
21018;SDS011;10667;51.056;3.732;2023-03-29T05:49:30;10.25;;;5.88;;
21018;SDS011;10667;51.056;3.732;2023-03-29T05:51:56;10.32;;;6.35;;
21018;SDS011;10667;51.056;3.732;2023-03-29T05:54:23;9.77;;;6.20;;
21018;SDS011;10667;51.056;3.732;2023-03-29T05:56:49;8.32;;;6.10;;
21018;SDS011;10667;51.056;3.732;2023-03-29T05:59:15;11.32;;;5.93;;
21018;SDS011;10667;51.056;3.732;2023-03-29T06:01:42;10.85;;;6.15;;
21018;SDS011;10667;51.056;3.732;2023-03-29T06:04:10;12.13;;;5.68;;
21018;SDS011;10667;51.056;3.732;2023-03-29T06:06:37;12.23;;;6.18;;
21018;SDS011;10667;51.056;3.732;2023-03-29T06:09:03;11.90;;;6.57;;
21018;SDS011;10667;51.056;3.732;2023-03-29T06:11:29;9.57;;;6.22;;
21018;SDS011;10667;51.056;3.732;2023-03-29T06:13:55;15.50;;;6.32;;
21018;SDS011;10667;51.056;3.732;2023-03-29T06:16:21;11.88;;;6.05;;
21018;SDS011;10667;51.056;3.732;2023-03-29T06:18:47;14.15;;;6.53;;
21018;SDS011;10667;51.056;3.732;2023-03-29T06:21:13;9.65;;;6.43;;
21018;SDS011;10667;51.056;3.732;2023-03-29T06:23:39;10.40;;;5.93;;
21018;SDS011;10667;51.056;3.732;2023-03-29T06:26:05;11.15;;;6.65;;
21018;SDS011;10667;51.056;3.732;2023-03-29T06:28:31;10.73;;;6.30;;
21018;SDS011;10667;51.056;3.732;2023-03-29T06:30:57;16.23;;;7.05;;
21018;SDS011;10667;51.056;3.732;2023-03-29T06:33:27;12.07;;;6.95;;
21018;SDS011;10667;51.056;3.732;2023-03-29T06:35:53;14.43;;;7.07;;
21018;SDS011;10667;51.056;3.732;2023-03-29T06:38:19;11.00;;;6.68;;
21018;SDS011;10667;51.056;3.732;2023-03-29T06:40:47;12.05;;;6.60;;
21018;SDS011;10667;51.056;3.732;2023-03-29T06:43:13;13.57;;;6.55;;
21018;SDS011;10667;51.056;3.732;2023-03-29T06:45:38;13.57;;;7.78;;
21018;SDS011;10667;51.056;3.732;2023-03-29T06:48:05;12.63;;;6.80;;
21018;SDS011;10667;51.056;3.732;2023-03-29T06:50:34;13.18;;;7.45;;
21018;SDS011;10667;51.056;3.732;2023-03-29T06:53:01;15.70;;;7.47;;
21018;SDS011;10667;51.056;3.732;2023-03-29T06:55:28;9.57;;;6.75;;
21018;SDS011;10667;51.056;3.732;2023-03-29T06:57:54;15.75;;;7.40;;
21018;SDS011;10667;51.056;3.732;2023-03-29T07:00:20;15.52;;;8.05;;
21018;SDS011;10667;51.056;3.732;2023-03-29T07:02:52;15.05;;;6.90;;
21018;SDS011;10667;51.056;3.732;2023-03-29T07:05:19;11.18;;;7.50;;
21018;SDS011;10667;51.056;3.732;2023-03-29T07:07:46;21.05;;;8.50;;
21018;SDS011;10667;51.056;3.732;2023-03-29T07:10:28;10.82;;;7.63;;
21018;SDS011;10667;51.056;3.732;2023-03-29T07:12:58;12.23;;;7.35;;
21018;SDS011;10667;51.056;3.732;2023-03-29T07:15:25;14.38;;;7.20;;
21018;SDS011;10667;51.056;3.732;2023-03-29T07:17:52;16.98;;;8.20;;
21018;SDS011;10667;51.056;3.732;2023-03-29T07:20:18;21.27;;;6.97;;
21018;SDS011;10667;51.056;3.732;2023-03-29T07:22:46;21.65;;;7.75;;
21018;SDS011;10667;51.056;3.732;2023-03-29T07:25:12;13.88;;;7.93;;
21018;SDS011;10667;51.056;3.732;2023-03-29T07:27:39;15.10;;;7.22;;
21018;SDS011;10667;51.056;3.732;2023-03-29T07:30:07;18.35;;;8.05;;
21018;SDS011;10667;51.056;3.732;2023-03-29T07:32:38;15.27;;;7.38;;
21018;SDS011;10667;51.056;3.732;2023-03-29T07:35:06;12.23;;;6.93;;
21018;SDS011;10667;51.056;3.732;2023-03-29T07:37:33;17.38;;;7.22;;
21018;SDS011;10667;51.056;3.732;2023-03-29T07:40:01;19.38;;;7.18;;
21018;SDS011;10667;51.056;3.732;2023-03-29T07:42:35;13.73;;;7.85;;
21018;SDS011;10667;51.056;3.732;2023-03-29T07:45:02;16.13;;;7.50;;
21018;SDS011;10667;51.056;3.732;2023-03-29T07:47:29;13.48;;;6.35;;
21018;SDS011;10667;51.056;3.732;2023-03-29T07:49:55;13.35;;;7.13;;
21018;SDS011;10667;51.056;3.732;2023-03-29T07:52:21;11.23;;;7.00;;
21018;SDS011;10667;51.056;3.732;2023-03-29T07:54:47;16.75;;;7.50;;
21018;SDS011;10667;51.056;3.732;2023-03-29T07:57:13;13.98;;;7.60;;
21018;SDS011;10667;51.056;3.732;2023-03-29T07:59:38;13.30;;;7.35;;
21018;SDS011;10667;51.056;3.732;2023-03-29T08:02:04;10.75;;;7.15;;
21018;SDS011;10667;51.056;3.732;2023-03-29T08:04:30;12.07;;;7.15;;
21018;SDS011;10667;51.056;3.732;2023-03-29T08:06:56;12.45;;;7.32;;
21018;SDS011;10667;51.056;3.732;2023-03-29T08:09:22;22.58;;;7.63;;
21018;SDS011;10667;51.056;3.732;2023-03-29T08:11:48;17.05;;;7.55;;
21018;SDS011;10667;51.056;3.732;2023-03-29T08:14:14;14.85;;;7.13;;
21018;SDS011;10667;51.056;3.732;2023-03-29T08:16:39;10.85;;;6.78;;
21018;SDS011;10667;51.056;3.732;2023-03-29T08:19:05;14.23;;;6.72;;
21018;SDS011;10667;51.056;3.732;2023-03-29T08:21:31;16.33;;;7.75;;
21018;SDS011;10667;51.056;3.732;2023-03-29T08:23:56;13.05;;;6.88;;
21018;SDS011;10667;51.056;3.732;2023-03-29T08:26:22;16.70;;;7.45;;
21018;SDS011;10667;51.056;3.732;2023-03-29T08:28:48;14.45;;;7.15;;
21018;SDS011;10667;51.056;3.732;2023-03-29T08:31:13;14.90;;;7.63;;
21018;SDS011;10667;51.056;3.732;2023-03-29T08:33:40;13.13;;;7.30;;
21018;SDS011;10667;51.056;3.732;2023-03-29T08:36:08;13.85;;;8.02;;
21018;SDS011;10667;51.056;3.732;2023-03-29T08:38:34;13.75;;;7.63;;
21018;SDS011;10667;51.056;3.732;2023-03-29T08:41:00;12.85;;;7.70;;
21018;SDS011;10667;51.056;3.732;2023-03-29T08:43:30;18.17;;;7.82;;
21018;SDS011;10667;51.056;3.732;2023-03-29T08:46:23;13.23;;;7.57;;
21018;SDS011;10667;51.056;3.732;2023-03-29T08:49:00;18.80;;;10.63;;
21018;SDS011;10667;51.056;3.732;2023-03-29T08:53:57;12.77;;;7.25;;
21018;SDS011;10667;51.056;3.732;2023-03-29T08:56:30;21.23;;;7.90;;
21018;SDS011;10667;51.056;3.732;2023-03-29T08:58:58;16.55;;;7.75;;
21018;SDS011;10667;51.056;3.732;2023-03-29T09:01:27;12.10;;;8.25;;
21018;SDS011;10667;51.056;3.732;2023-03-29T09:06:32;15.60;;;7.80;;
21018;SDS011;10667;51.056;3.732;2023-03-29T09:08:58;13.13;;;7.85;;
21018;SDS011;10667;51.056;3.732;2023-03-29T09:14:29;34.65;;;15.75;;
21018;SDS011;10667;51.056;3.732;2023-03-29T09:19:41;24.05;;;9.13;;
21018;SDS011;10667;51.056;3.732;2023-03-29T09:22:25;21.02;;;8.63;;
21018;SDS011;10667;51.056;3.732;2023-03-29T09:25:09;15.40;;;8.65;;
21018;SDS011;10667;51.056;3.732;2023-03-29T09:28:04;12.20;;;8.70;;
21018;SDS011;10667;51.056;3.732;2023-03-29T09:30:57;17.60;;;8.18;;
21018;SDS011;10667;51.056;3.732;2023-03-29T09:33:32;12.65;;;8.15;;
21018;SDS011;10667;51.056;3.732;2023-03-29T09:36:11;15.30;;;8.75;;
21018;SDS011;10667;51.056;3.732;2023-03-29T09:38:47;15.57;;;9.85;;
21018;SDS011;10667;51.056;3.732;2023-03-29T09:44:18;10.30;;;7.95;;
21018;SDS011;10667;51.056;3.732;2023-03-29T09:46:50;15.23;;;8.25;;
21018;SDS011;10667;51.056;3.732;2023-03-29T09:49:21;14.40;;;8.52;;
21018;SDS011;10667;51.056;3.732;2023-03-29T09:51:51;12.30;;;7.80;;
21018;SDS011;10667;51.056;3.732;2023-03-29T09:54:20;15.82;;;8.57;;
21018;SDS011;10667;51.056;3.732;2023-03-29T09:56:47;12.85;;;8.23;;
21018;SDS011;10667;51.056;3.732;2023-03-29T09:59:13;14.10;;;8.45;;
21018;SDS011;10667;51.056;3.732;2023-03-29T10:01:40;10.95;;;8.10;;
21018;SDS011;10667;51.056;3.732;2023-03-29T10:04:09;14.88;;;9.50;;
21018;SDS011;10667;51.056;3.732;2023-03-29T10:06:36;14.00;;;7.55;;
21018;SDS011;10667;51.056;3.732;2023-03-29T10:09:21;11.15;;;8.15;;
21018;SDS011;10667;51.056;3.732;2023-03-29T10:11:52;16.15;;;8.25;;
21018;SDS011;10667;51.056;3.732;2023-03-29T10:14:36;14.23;;;8.05;;
21018;SDS011;10667;51.056;3.732;2023-03-29T10:17:17;12.50;;;8.27;;
21018;SDS011;10667;51.056;3.732;2023-03-29T10:19:55;13.15;;;8.57;;
21018;SDS011;10667;51.056;3.732;2023-03-29T10:22:25;12.02;;;8.82;;
21018;SDS011;10667;51.056;3.732;2023-03-29T10:24:56;12.82;;;7.90;;
21018;SDS011;10667;51.056;3.732;2023-03-29T10:27:23;10.45;;;7.70;;
21018;SDS011;10667;51.056;3.732;2023-03-29T10:29:53;12.10;;;8.02;;
21018;SDS011;10667;51.056;3.732;2023-03-29T10:34:47;14.40;;;7.57;;
21018;SDS011;10667;51.056;3.732;2023-03-29T10:37:15;12.65;;;7.90;;
21018;SDS011;10667;51.056;3.732;2023-03-29T10:39:43;12.35;;;7.93;;
21018;SDS011;10667;51.056;3.732;2023-03-29T10:42:17;13.02;;;8.07;;
21018;SDS011;10667;51.056;3.732;2023-03-29T10:44:57;14.48;;;8.85;;
21018;SDS011;10667;51.056;3.732;2023-03-29T10:47:24;17.35;;;8.32;;
21018;SDS011;10667;51.056;3.732;2023-03-29T10:49:54;16.85;;;7.53;;
21018;SDS011;10667;51.056;3.732;2023-03-29T10:52:21;13.65;;;8.57;;
21018;SDS011;10667;51.056;3.732;2023-03-29T10:54:47;16.35;;;8.45;;
21018;SDS011;10667;51.056;3.732;2023-03-29T11:00:22;19.30;;;9.52;;
21018;SDS011;10667;51.056;3.732;2023-03-29T11:11:03;13.93;;;8.18;;
21018;SDS011;10667;51.056;3.732;2023-03-29T11:16:30;15.13;;;7.82;;
21018;SDS011;10667;51.056;3.732;2023-03-29T11:19:34;14.73;;;8.18;;
21018;SDS011;10667;51.056;3.732;2023-03-29T11:22:18;11.88;;;7.38;;
21018;SDS011;10667;51.056;3.732;2023-03-29T11:32:57;13.85;;;7.57;;
21018;SDS011;10667;51.056;3.732;2023-03-29T11:40:53;8.15;;;6.55;;
21018;SDS011;10667;51.056;3.732;2023-03-29T11:43:26;12.02;;;6.65;;
21018;SDS011;10667;51.056;3.732;2023-03-29T11:46:09;10.43;;;6.45;;
21018;SDS011;10667;51.056;3.732;2023-03-29T11:48:44;9.25;;;5.90;;
21018;SDS011;10667;51.056;3.732;2023-03-29T11:51:22;11.43;;;5.55;;
21018;SDS011;10667;51.056;3.732;2023-03-29T11:54:26;8.50;;;5.97;;
21018;SDS011;10667;51.056;3.732;2023-03-29T11:57:03;8.93;;;4.97;;
21018;SDS011;10667;51.056;3.732;2023-03-29T12:04:53;6.82;;;4.82;;
21018;SDS011;10667;51.056;3.732;2023-03-29T12:07:26;9.20;;;5.00;;
21018;SDS011;10667;51.056;3.732;2023-03-29T12:10:07;7.15;;;4.93;;
21018;SDS011;10667;51.056;3.732;2023-03-29T12:15:19;8.82;;;5.07;;
21018;SDS011;10667;51.056;3.732;2023-03-29T12:20:52;8.32;;;4.72;;
21018;SDS011;10667;51.056;3.732;2023-03-29T12:23:23;7.95;;;4.72;;
21018;SDS011;10667;51.056;3.732;2023-03-29T12:31:38;6.30;;;4.53;;
21018;SDS011;10667;51.056;3.732;2023-03-29T12:37:09;7.07;;;4.90;;
21018;SDS011;10667;51.056;3.732;2023-03-29T12:39:49;5.88;;;4.90;;
21018;SDS011;10667;51.056;3.732;2023-03-29T12:42:16;8.30;;;4.10;;
21018;SDS011;10667;51.056;3.732;2023-03-29T12:44:51;8.02;;;4.53;;
21018;SDS011;10667;51.056;3.732;2023-03-29T12:47:23;8.75;;;4.50;;
21018;SDS011;10667;51.056;3.732;2023-03-29T12:49:58;9.30;;;4.30;;
21018;SDS011;10667;51.056;3.732;2023-03-29T12:52:26;8.93;;;4.80;;
21018;SDS011;10667;51.056;3.732;2023-03-29T12:54:58;7.97;;;3.83;;
21018;SDS011;10667;51.056;3.732;2023-03-29T12:57:40;4.53;;;3.17;;
21018;SDS011;10667;51.056;3.732;2023-03-29T13:05:59;9.65;;;4.80;;
21018;SDS011;10667;51.056;3.732;2023-03-29T13:08:36;8.07;;;4.80;;
21018;SDS011;10667;51.056;3.732;2023-03-29T13:11:04;7.60;;;4.93;;
21018;SDS011;10667;51.056;3.732;2023-03-29T13:13:35;12.75;;;4.93;;
21018;SDS011;10667;51.056;3.732;2023-03-29T13:16:13;11.13;;;4.93;;
21018;SDS011;10667;51.056;3.732;2023-03-29T13:21:20;9.95;;;4.72;;
21018;SDS011;10667;51.056;3.732;2023-03-29T13:29:33;10.07;;;5.10;;
21018;SDS011;10667;51.056;3.732;2023-03-29T13:32:35;5.90;;;4.30;;
21018;SDS011;10667;51.056;3.732;2023-03-29T13:43:09;10.27;;;6.47;;
21018;SDS011;10667;51.056;3.732;2023-03-29T13:45:35;7.22;;;6.05;;
21018;SDS011;10667;51.056;3.732;2023-03-29T13:51:18;9.50;;;6.35;;
21018;SDS011;10667;51.056;3.732;2023-03-29T13:53:38;9.52;;;5.70;;
21018;SDS011;10667;51.056;3.732;2023-03-29T13:56:11;6.53;;;5.53;;
21018;SDS011;10667;51.056;3.732;2023-03-29T13:59:02;7.97;;;5.55;;
21018;SDS011;10667;51.056;3.732;2023-03-29T14:01:59;7.63;;;5.38;;
21018;SDS011;10667;51.056;3.732;2023-03-29T14:04:29;7.72;;;5.65;;
21018;SDS011;10667;51.056;3.732;2023-03-29T14:07:01;9.02;;;5.65;;
21018;SDS011;10667;51.056;3.732;2023-03-29T14:09:31;8.43;;;5.90;;
21018;SDS011;10667;51.056;3.732;2023-03-29T14:12:00;9.43;;;6.10;;
21018;SDS011;10667;51.056;3.732;2023-03-29T14:14:28;11.13;;;5.97;;
21018;SDS011;10667;51.056;3.732;2023-03-29T14:16:55;10.95;;;6.85;;
21018;SDS011;10667;51.056;3.732;2023-03-29T14:19:29;8.48;;;6.25;;
21018;SDS011;10667;51.056;3.732;2023-03-29T14:21:58;10.18;;;6.78;;
21018;SDS011;10667;51.056;3.732;2023-03-29T14:24:26;10.02;;;7.20;;
21018;SDS011;10667;51.056;3.732;2023-03-29T14:27:00;10.55;;;6.28;;
21018;SDS011;10667;51.056;3.732;2023-03-29T14:29:31;10.52;;;6.20;;
21018;SDS011;10667;51.056;3.732;2023-03-29T14:32:25;15.02;;;7.60;;
21018;SDS011;10667;51.056;3.732;2023-03-29T14:34:51;13.82;;;7.03;;
21018;SDS011;10667;51.056;3.732;2023-03-29T14:37:20;9.50;;;6.68;;
21018;SDS011;10667;51.056;3.732;2023-03-29T14:39:49;13.85;;;6.90;;
21018;SDS011;10667;51.056;3.732;2023-03-29T14:42:19;10.45;;;7.07;;
21018;SDS011;10667;51.056;3.732;2023-03-29T14:44:48;10.20;;;7.18;;
21018;SDS011;10667;51.056;3.732;2023-03-29T14:47:28;15.50;;;7.05;;
21018;SDS011;10667;51.056;3.732;2023-03-29T14:49:55;11.68;;;7.00;;
21018;SDS011;10667;51.056;3.732;2023-03-29T14:52:24;9.10;;;6.28;;
21018;SDS011;10667;51.056;3.732;2023-03-29T14:54:52;12.48;;;7.40;;
21018;SDS011;10667;51.056;3.732;2023-03-29T14:57:23;10.77;;;6.15;;
21018;SDS011;10667;51.056;3.732;2023-03-29T14:59:52;11.30;;;6.75;;
21018;SDS011;10667;51.056;3.732;2023-03-29T15:02:32;11.05;;;6.97;;
21018;SDS011;10667;51.056;3.732;2023-03-29T15:05:02;11.35;;;6.80;;
21018;SDS011;10667;51.056;3.732;2023-03-29T15:07:46;10.57;;;6.68;;
21018;SDS011;10667;51.056;3.732;2023-03-29T15:10:17;10.52;;;6.35;;
21018;SDS011;10667;51.056;3.732;2023-03-29T15:12:43;11.48;;;7.15;;
21018;SDS011;10667;51.056;3.732;2023-03-29T15:15:10;10.73;;;7.30;;
21018;SDS011;10667;51.056;3.732;2023-03-29T15:17:37;13.88;;;8.23;;
21018;SDS011;10667;51.056;3.732;2023-03-29T15:20:18;10.05;;;7.93;;
21018;SDS011;10667;51.056;3.732;2023-03-29T15:23:02;10.48;;;7.18;;
21018;SDS011;10667;51.056;3.732;2023-03-29T15:25:45;12.70;;;7.38;;
21018;SDS011;10667;51.056;3.732;2023-03-29T15:30:55;12.30;;;6.95;;
21018;SDS011;10667;51.056;3.732;2023-03-29T15:33:24;16.45;;;8.18;;
21018;SDS011;10667;51.056;3.732;2023-03-29T15:35:57;12.02;;;7.75;;
21018;SDS011;10667;51.056;3.732;2023-03-29T15:38:23;14.80;;;8.20;;
21018;SDS011;10667;51.056;3.732;2023-03-29T15:40:49;12.75;;;7.82;;
21018;SDS011;10667;51.056;3.732;2023-03-29T15:43:14;17.10;;;9.07;;
21018;SDS011;10667;51.056;3.732;2023-03-29T15:45:40;15.88;;;7.75;;
21018;SDS011;10667;51.056;3.732;2023-03-29T15:48:16;11.30;;;8.25;;
21018;SDS011;10667;51.056;3.732;2023-03-29T15:50:50;13.95;;;8.13;;
21018;SDS011;10667;51.056;3.732;2023-03-29T15:53:17;13.60;;;8.18;;
21018;SDS011;10667;51.056;3.732;2023-03-29T15:55:52;15.05;;;8.43;;
21018;SDS011;10667;51.056;3.732;2023-03-29T15:58:29;11.63;;;7.82;;
21018;SDS011;10667;51.056;3.732;2023-03-29T16:00:57;16.15;;;7.80;;
21018;SDS011;10667;51.056;3.732;2023-03-29T16:03:37;14.07;;;9.45;;
21018;SDS011;10667;51.056;3.732;2023-03-29T16:06:04;17.52;;;7.97;;
21018;SDS011;10667;51.056;3.732;2023-03-29T16:08:30;16.20;;;8.73;;
21018;SDS011;10667;51.056;3.732;2023-03-29T16:10:56;16.13;;;8.70;;
21018;SDS011;10667;51.056;3.732;2023-03-29T16:13:22;16.35;;;8.52;;
21018;SDS011;10667;51.056;3.732;2023-03-29T16:15:47;18.90;;;9.55;;
21018;SDS011;10667;51.056;3.732;2023-03-29T16:18:13;17.25;;;8.80;;
21018;SDS011;10667;51.056;3.732;2023-03-29T16:20:39;15.52;;;9.30;;
21018;SDS011;10667;51.056;3.732;2023-03-29T16:23:05;13.48;;;8.63;;
21018;SDS011;10667;51.056;3.732;2023-03-29T16:25:33;15.98;;;9.20;;
21018;SDS011;10667;51.056;3.732;2023-03-29T16:28:01;15.73;;;8.70;;
21018;SDS011;10667;51.056;3.732;2023-03-29T16:30:28;14.73;;;8.90;;
21018;SDS011;10667;51.056;3.732;2023-03-29T16:32:55;15.95;;;8.90;;
21018;SDS011;10667;51.056;3.732;2023-03-29T16:35:25;15.48;;;9.45;;
21018;SDS011;10667;51.056;3.732;2023-03-29T16:37:53;18.35;;;8.75;;
21018;SDS011;10667;51.056;3.732;2023-03-29T16:40:19;18.83;;;9.63;;
21018;SDS011;10667;51.056;3.732;2023-03-29T16:42:46;15.10;;;8.48;;
21018;SDS011;10667;51.056;3.732;2023-03-29T16:45:12;14.90;;;8.95;;
21018;SDS011;10667;51.056;3.732;2023-03-29T16:47:39;18.92;;;9.57;;
21018;SDS011;10667;51.056;3.732;2023-03-29T16:50:09;15.02;;;8.38;;
21018;SDS011;10667;51.056;3.732;2023-03-29T16:52:39;17.10;;;9.00;;
21018;SDS011;10667;51.056;3.732;2023-03-29T16:55:06;16.20;;;9.15;;
21018;SDS011;10667;51.056;3.732;2023-03-29T16:57:34;18.02;;;8.40;;